createdAt,value
2022-09-20T00:00:48.302Z,18.10
2022-09-20T00:03:16.837Z,18.20
2022-09-20T00:05:45.847Z,18.00
2022-09-20T00:08:15.161Z,18.20
2022-09-20T00:10:42.573Z,18.10
2022-09-20T00:13:11.718Z,18.10
2022-09-20T00:15:46.140Z,18.10
2022-09-20T00:18:13.349Z,18.10
2022-09-20T00:20:47.768Z,18.10
2022-09-20T00:23:15.259Z,18.20
2022-09-20T00:25:42.710Z,18.20
2022-09-20T00:28:10.756Z,18.10
2022-09-20T00:30:38.561Z,18.10
2022-09-20T00:33:05.444Z,18.10
2022-09-20T00:35:32.285Z,18.20
2022-09-20T00:37:59.077Z,18.10
2022-09-20T00:40:27.174Z,18.10
2022-09-20T00:42:54.238Z,18.00
2022-09-20T00:45:28.243Z,18.20
2022-09-20T00:48:04.228Z,18.20
2022-09-20T00:50:33.912Z,18.10
2022-09-20T00:53:14.469Z,18.00
2022-09-20T00:55:45.711Z,18.10
2022-09-20T00:58:14.569Z,18.10
2022-09-20T01:00:43.919Z,18.00
2022-09-20T01:03:12.877Z,18.00
2022-09-20T01:05:40.722Z,17.90
2022-09-20T01:08:09.560Z,18.00
2022-09-20T01:10:37.154Z,18.00
2022-09-20T01:13:05.710Z,18.00
2022-09-20T01:15:34.304Z,18.00
2022-09-20T01:18:02.703Z,18.00
2022-09-20T01:20:35.914Z,17.90
2022-09-20T01:23:26.064Z,18.00
2022-09-20T01:26:38.107Z,17.90
2022-09-20T01:29:18.485Z,17.90
2022-09-20T01:31:51.949Z,17.80
2022-09-20T01:34:26.203Z,17.90
2022-09-20T01:37:16.384Z,17.80
2022-09-20T01:40:09.402Z,17.80
2022-09-20T01:43:05.093Z,17.80
2022-09-20T01:45:32.953Z,17.80
2022-09-20T01:48:26.031Z,17.70
2022-09-20T01:51:20.293Z,17.70
2022-09-20T01:54:05.634Z,17.80
2022-09-20T01:57:14.972Z,17.80
2022-09-20T02:00:09.567Z,17.70
2022-09-20T02:02:55.056Z,17.60
2022-09-20T02:05:49.446Z,17.70
2022-09-20T02:08:22.237Z,17.60
2022-09-20T02:11:03.991Z,17.60
2022-09-20T02:13:32.248Z,17.60
2022-09-20T02:16:20.230Z,17.70
2022-09-20T02:19:11.730Z,17.70
2022-09-20T02:21:44.600Z,17.60
2022-09-20T02:24:17.883Z,17.60
2022-09-20T02:27:00.556Z,17.50
2022-09-20T02:29:48.597Z,17.50
2022-09-20T02:32:59.870Z,17.50
2022-09-20T02:35:55.502Z,17.50
2022-09-20T02:38:28.436Z,17.50
2022-09-20T02:41:24.955Z,17.50
2022-09-20T02:44:10.519Z,17.50
2022-09-20T02:47:02.103Z,17.50
2022-09-20T02:49:36.490Z,17.50
2022-09-20T02:52:46.758Z,17.50
2022-09-20T02:55:16.495Z,17.50
2022-09-20T02:57:50.363Z,17.40
2022-09-20T03:00:25.278Z,17.50
2022-09-20T03:03:19.803Z,17.50
2022-09-20T03:05:51.191Z,17.40
2022-09-20T03:08:38.629Z,17.50
2022-09-20T03:11:32.660Z,17.50
2022-09-20T03:14:22.999Z,17.50
2022-09-20T03:17:02.347Z,17.50
2022-09-20T03:20:06.830Z,17.50
2022-09-20T03:23:03.614Z,17.40
2022-09-20T03:26:02.519Z,17.50
2022-09-20T03:28:50.807Z,17.50
2022-09-20T03:31:35.505Z,17.60
2022-09-20T03:34:23.393Z,17.50
2022-09-20T03:37:02.955Z,17.50
2022-09-20T03:40:09.662Z,17.40
2022-09-20T03:42:42.384Z,17.50
2022-09-20T03:45:27.599Z,17.50
2022-09-20T03:48:32.278Z,17.50
2022-09-20T03:51:01.935Z,17.40
2022-09-20T03:54:14.426Z,17.50
2022-09-20T03:57:02.917Z,17.50
2022-09-20T03:59:51.162Z,17.50
2022-09-20T04:02:43.323Z,17.50
2022-09-20T04:05:16.740Z,17.50
2022-09-20T04:08:02.160Z,17.50
2022-09-20T04:10:38.226Z,17.50
2022-09-20T04:13:14.363Z,17.60
2022-09-20T04:15:52.994Z,17.60
2022-09-20T04:18:51.976Z,17.50
2022-09-20T04:21:46.518Z,17.30
2022-09-20T04:24:28.860Z,16.50
2022-09-20T04:27:09.396Z,16.00
2022-09-20T04:30:09.761Z,15.50
2022-09-20T04:32:51.995Z,15.10
2022-09-20T04:35:58.407Z,14.80
2022-09-20T04:38:26.823Z,14.80
2022-09-20T04:41:20.960Z,15.30
2022-09-20T04:44:16.382Z,15.70
2022-09-20T04:47:05.968Z,16.00
2022-09-20T04:49:35.450Z,16.40
2022-09-20T04:52:34.543Z,16.50
2022-09-20T04:55:19.863Z,16.70
2022-09-20T04:57:58.608Z,16.90
2022-09-20T05:00:37.189Z,17.10
2022-09-20T05:03:35.882Z,17.30
2022-09-20T05:06:15.623Z,17.50
2022-09-20T05:08:59.049Z,17.70
2022-09-20T05:11:55.259Z,18.00
2022-09-20T05:14:57.479Z,18.30
2022-09-20T05:17:51.336Z,18.50
2022-09-20T05:20:59.449Z,18.80
2022-09-20T05:23:52.795Z,18.90
2022-09-20T05:26:43.414Z,19.00
2022-09-20T05:29:16.390Z,18.90
2022-09-20T05:32:20.588Z,19.00
2022-09-20T05:35:03.226Z,18.80
2022-09-20T05:38:12.610Z,18.80
2022-09-20T05:41:04.141Z,18.70
2022-09-20T05:43:47.045Z,18.70
2022-09-20T05:46:23.042Z,18.60
2022-09-20T05:48:49.812Z,18.60
2022-09-20T05:51:41.549Z,18.70
2022-09-20T05:54:20.727Z,18.70
2022-09-20T05:56:56.477Z,18.80
2022-09-20T05:59:45.301Z,18.90
2022-09-20T06:02:21.651Z,19.00
2022-09-20T06:04:56.723Z,19.00
2022-09-20T06:07:46.171Z,19.10
2022-09-20T06:10:36.150Z,19.00
2022-09-20T06:13:33.562Z,19.00
2022-09-20T06:16:04.525Z,19.00
2022-09-20T06:19:04.452Z,18.90
2022-09-20T06:21:42.878Z,18.90
2022-09-20T06:24:51.704Z,18.90
2022-09-20T06:27:40.838Z,18.90
2022-09-20T06:30:13.094Z,18.90
2022-09-20T06:33:14.895Z,18.80
2022-09-20T06:36:32.622Z,18.80
2022-09-20T06:39:18.065Z,18.80
2022-09-20T06:41:45.307Z,18.90
2022-09-20T06:44:12.149Z,18.90
2022-09-20T06:46:39.312Z,18.90
2022-09-20T06:49:09.526Z,18.80
2022-09-20T06:51:38.658Z,18.80
2022-09-20T06:54:07.410Z,18.80
2022-09-20T06:56:36.996Z,18.80
2022-09-20T06:59:05.035Z,18.90
2022-09-20T07:01:31.934Z,18.80
2022-09-20T07:03:59.235Z,18.80
2022-09-20T07:06:27.311Z,18.90
2022-09-20T07:08:54.153Z,19.00
2022-09-20T07:11:23.118Z,19.10
2022-09-20T07:13:54.934Z,19.00
2022-09-20T07:16:22.258Z,19.10
2022-09-20T07:18:49.946Z,19.10
2022-09-20T07:21:18.896Z,19.10
2022-09-20T07:23:46.308Z,19.10
2022-09-20T07:26:25.527Z,19.10
2022-09-20T07:28:52.593Z,19.20
2022-09-20T07:31:21.595Z,19.30
2022-09-20T07:33:49.160Z,19.30
2022-09-20T07:36:16.659Z,19.50
2022-09-20T07:38:48.136Z,19.80
2022-09-20T07:41:14.933Z,20.00
2022-09-20T07:43:41.711Z,20.30
2022-09-20T07:46:10.134Z,20.60
2022-09-20T07:48:37.062Z,20.80
2022-09-20T07:51:13.944Z,21.10
2022-09-20T07:53:41.153Z,21.50
2022-09-20T07:56:10.522Z,21.80
2022-09-20T07:58:37.736Z,22.20
2022-09-20T08:01:07.351Z,23.00
2022-09-20T08:03:34.908Z,24.50
2022-09-20T08:06:10.234Z,26.10
2022-09-20T08:08:38.262Z,27.40
2022-09-20T08:11:07.970Z,28.20
2022-09-20T08:16:31.413Z,28.90
2022-09-20T08:19:00.477Z,29.50
2022-09-20T08:21:35.433Z,30.10
2022-09-20T08:24:03.924Z,30.80
2022-09-20T08:26:35.840Z,31.10
2022-09-20T08:29:03.250Z,31.40
2022-09-20T08:31:32.383Z,31.70
2022-09-20T08:34:02.998Z,31.80
2022-09-20T08:36:36.095Z,32.00
2022-09-20T08:42:12.955Z,32.20
2022-09-20T08:44:59.540Z,32.20
2022-09-20T08:47:28.051Z,32.60
2022-09-20T08:49:57.302Z,32.10
2022-09-20T08:52:37.454Z,30.90
2022-09-20T08:55:28.004Z,29.60
2022-09-20T08:57:56.795Z,30.00
2022-09-20T09:00:29.429Z,29.90
2022-09-20T09:03:03.816Z,29.40
2022-09-20T09:05:40.879Z,28.60
2022-09-20T09:08:24.733Z,28.00
2022-09-20T09:10:56.729Z,27.70
2022-09-20T09:13:29.124Z,27.60
2022-09-20T09:16:00.292Z,27.20
2022-09-20T09:18:35.484Z,26.90
2022-09-20T09:21:05.101Z,26.80
2022-09-20T09:23:45.255Z,27.20
2022-09-20T09:26:21.290Z,27.80
2022-09-20T09:29:31.707Z,27.40
2022-09-20T09:32:20.987Z,26.60
2022-09-20T09:34:47.975Z,25.90
2022-09-20T09:37:30.601Z,25.40
2022-09-20T09:40:17.076Z,24.90
2022-09-20T09:42:56.603Z,24.60
2022-09-20T09:45:36.120Z,24.40
2022-09-20T09:48:17.192Z,24.20
2022-09-20T09:50:43.960Z,24.00
2022-09-20T09:53:15.253Z,24.00
2022-09-20T09:56:22.994Z,24.40
2022-09-20T09:59:04.561Z,25.60
2022-09-20T10:01:41.269Z,25.30
2022-09-20T10:04:20.302Z,25.20
2022-09-20T10:06:52.958Z,24.70
2022-09-20T10:09:29.298Z,24.40
2022-09-20T10:11:58.893Z,24.20
2022-09-20T10:15:10.473Z,24.00
2022-09-20T10:18:01.658Z,23.90
2022-09-20T10:20:55.922Z,24.70
2022-09-20T10:24:04.915Z,25.90
2022-09-20T10:26:44.156Z,26.50
2022-09-20T10:29:46.239Z,27.10
2022-09-20T10:32:26.452Z,26.90
2022-09-20T10:35:06.136Z,26.90
2022-09-20T10:38:04.054Z,26.40
2022-09-20T10:40:54.908Z,25.90
2022-09-20T10:43:46.387Z,25.40
2022-09-20T10:46:51.632Z,25.00
2022-09-20T10:49:18.445Z,25.00
2022-09-20T10:52:02.760Z,25.50
2022-09-20T10:54:38.322Z,25.50
2022-09-20T10:57:27.331Z,25.30
2022-09-20T11:00:12.585Z,24.90
2022-09-20T11:02:59.670Z,24.50
2022-09-20T11:05:26.535Z,24.30
2022-09-20T11:08:20.016Z,24.20
2022-09-20T11:10:51.888Z,24.20
2022-09-20T11:13:31.112Z,24.40
2022-09-20T11:16:05.832Z,24.60
2022-09-20T11:19:05.430Z,24.90
2022-09-20T11:21:40.330Z,25.40
2022-09-20T11:24:13.346Z,25.60
2022-09-20T11:26:49.846Z,25.90
2022-09-20T11:29:19.716Z,25.90
2022-09-20T11:31:50.704Z,25.90
2022-09-20T11:34:37.794Z,25.90
2022-09-20T11:37:04.718Z,25.90
2022-09-20T11:39:42.507Z,25.90
2022-09-20T11:42:16.405Z,25.80
2022-09-20T11:44:43.505Z,25.80
2022-09-20T11:47:49.810Z,25.70
2022-09-20T11:50:35.142Z,25.80
2022-09-20T11:53:37.216Z,25.80
2022-09-20T11:56:23.439Z,25.70
2022-09-20T11:58:55.242Z,25.60
2022-09-20T12:01:37.613Z,25.50
2022-09-20T12:04:32.282Z,25.40
2022-09-20T12:07:10.640Z,25.40
2022-09-20T12:09:43.882Z,25.20
2022-09-20T12:12:32.188Z,24.90
2022-09-20T12:15:01.571Z,24.70
2022-09-20T12:17:46.763Z,24.70
2022-09-20T12:20:35.104Z,24.70
2022-09-20T12:23:42.405Z,24.50
2022-09-20T12:26:11.026Z,24.30
2022-09-20T12:28:43.625Z,24.20
2022-09-20T12:31:19.626Z,24.20
2022-09-20T12:34:12.241Z,24.00
2022-09-20T12:36:52.221Z,24.00
2022-09-20T12:39:26.311Z,23.90
2022-09-20T12:41:58.739Z,23.70
2022-09-20T12:44:49.547Z,23.70
2022-09-20T12:47:24.189Z,23.70
2022-09-20T12:50:12.910Z,23.50
2022-09-20T12:52:54.009Z,23.40
2022-09-20T12:55:29.956Z,23.30
2022-09-20T12:58:14.641Z,23.20
2022-09-20T13:01:01.167Z,23.20
2022-09-20T13:03:48.464Z,23.10
2022-09-20T13:06:16.446Z,22.90
2022-09-20T13:08:47.995Z,22.90
2022-09-20T13:11:40.183Z,22.80
2022-09-20T13:14:10.071Z,22.80
2022-09-20T13:16:39.749Z,22.70
2022-09-20T13:19:18.118Z,22.60
2022-09-20T13:22:02.534Z,22.50
2022-09-20T13:24:41.713Z,22.50
2022-09-20T13:27:19.289Z,22.50
2022-09-20T13:29:46.933Z,22.50
2022-09-20T13:32:31.006Z,22.50
2022-09-20T13:35:12.669Z,22.40
2022-09-20T13:37:47.019Z,22.30
2022-09-20T13:40:23.306Z,22.20
2022-09-20T13:42:52.769Z,22.30
2022-09-20T13:45:22.081Z,22.10
2022-09-20T13:47:51.898Z,22.10
2022-09-20T13:50:27.476Z,22.00
2022-09-20T13:53:00.259Z,21.90
2022-09-20T13:55:34.471Z,21.90
2022-09-20T13:58:09.871Z,21.80
2022-09-20T14:00:44.884Z,21.80
2022-09-20T14:03:17.811Z,21.80
2022-09-20T14:05:51.617Z,21.80
2022-09-20T14:08:39.291Z,21.80
2022-09-20T14:11:30.145Z,21.60
2022-09-20T14:13:59.806Z,21.50
2022-09-20T14:16:38.069Z,21.50
2022-09-20T14:19:08.128Z,21.50
2022-09-20T14:21:36.706Z,21.40
2022-09-20T14:24:12.066Z,21.40
2022-09-20T14:26:40.424Z,21.30
2022-09-20T14:29:34.785Z,21.20
2022-09-20T14:32:16.888Z,21.20
2022-09-20T14:34:58.760Z,20.90
2022-09-20T14:37:47.775Z,20.50
2022-09-20T14:40:20.371Z,20.00
2022-09-20T14:42:50.996Z,19.60
2022-09-20T14:45:23.959Z,19.20
2022-09-20T14:48:18.828Z,18.90
2022-09-20T14:50:47.231Z,18.70
2022-09-20T14:53:26.880Z,18.60
2022-09-20T14:56:05.874Z,18.30
2022-09-20T14:58:33.554Z,18.20
2022-09-20T15:01:23.105Z,18.10
2022-09-20T15:03:50.423Z,18.00
2022-09-20T15:06:17.357Z,17.70
2022-09-20T15:08:46.730Z,17.60
2022-09-20T15:11:20.484Z,17.50
2022-09-20T15:13:47.274Z,17.40
2022-09-20T15:16:17.594Z,17.30
2022-09-20T15:18:45.245Z,17.20
2022-09-20T15:21:12.597Z,17.10
2022-09-20T15:23:40.199Z,17.00
2022-09-20T15:26:08.880Z,16.90
2022-09-20T15:28:35.733Z,16.90
2022-09-20T15:31:02.852Z,16.80
2022-09-20T15:33:32.174Z,16.70
2022-09-20T15:35:59.623Z,16.70
2022-09-20T15:38:27.096Z,16.60
2022-09-20T15:40:54.797Z,16.50
2022-09-20T15:43:27.957Z,16.40
2022-09-20T15:46:03.762Z,16.40
2022-09-20T15:48:31.234Z,16.40
2022-09-20T15:51:00.394Z,16.30
2022-09-20T15:53:28.135Z,16.30
2022-09-20T15:55:54.946Z,16.20
2022-09-20T15:58:21.749Z,16.10
2022-09-20T16:00:49.905Z,16.10
2022-09-20T16:03:17.504Z,16.00
2022-09-20T16:05:44.286Z,16.00
2022-09-20T16:08:11.123Z,16.00
2022-09-20T16:10:38.631Z,15.90
2022-09-20T16:13:05.428Z,15.80
2022-09-20T16:15:32.265Z,15.70
2022-09-20T16:18:17.496Z,15.70
2022-09-20T16:20:44.258Z,15.50
2022-09-20T16:23:13.446Z,15.50
2022-09-20T16:25:40.216Z,15.40
2022-09-20T16:28:07.095Z,15.40
2022-09-20T16:30:34.395Z,15.30
2022-09-20T16:33:06.210Z,15.30
2022-09-20T16:35:34.148Z,15.20
2022-09-20T16:38:00.972Z,15.10
2022-09-20T16:40:27.850Z,15.10
2022-09-20T16:42:56.922Z,15.10
2022-09-20T16:45:24.396Z,15.10
2022-09-20T16:47:51.243Z,15.00
2022-09-20T16:50:18.093Z,15.00
2022-09-20T16:52:44.861Z,14.90
2022-09-20T16:55:13.096Z,14.70
2022-09-20T16:57:39.981Z,14.90
2022-09-20T17:00:07.469Z,14.70
2022-09-20T17:02:36.160Z,14.80
2022-09-20T17:05:02.982Z,14.70
2022-09-20T17:07:31.443Z,14.70
2022-09-20T17:10:01.313Z,14.60
2022-09-20T17:12:33.254Z,14.60
2022-09-20T17:15:00.027Z,14.60
2022-09-20T17:17:26.896Z,14.60
2022-09-20T17:19:54.874Z,14.60
2022-09-20T17:22:21.692Z,14.50
2022-09-20T17:24:50.002Z,14.50
2022-09-20T17:27:16.785Z,14.50
2022-09-20T17:29:44.194Z,14.40
2022-09-20T17:32:11.040Z,14.50
2022-09-20T17:34:37.919Z,14.40
2022-09-20T17:37:04.755Z,14.40
2022-09-20T17:39:31.730Z,14.40
2022-09-20T17:41:58.515Z,14.30
2022-09-20T17:44:25.400Z,14.30
2022-09-20T17:46:54.066Z,14.30
2022-09-20T17:49:22.565Z,14.20
2022-09-20T17:51:52.165Z,14.20
2022-09-20T17:54:19.759Z,14.10
2022-09-20T17:56:49.454Z,14.10
2022-09-20T17:59:17.547Z,14.10
2022-09-20T18:01:45.885Z,14.10
2022-09-20T18:04:13.565Z,14.10
2022-09-20T18:06:44.304Z,14.00
2022-09-20T18:09:12.175Z,14.10
2022-09-20T18:11:50.639Z,14.10
2022-09-20T18:14:20.025Z,14.10
2022-09-20T18:16:47.102Z,14.20
2022-09-20T18:19:16.183Z,14.20
2022-09-20T18:21:43.366Z,14.20
2022-09-20T18:24:11.477Z,14.20
2022-09-20T18:26:38.763Z,14.20
2022-09-20T18:29:11.216Z,14.20
2022-09-20T18:31:46.152Z,14.10
2022-09-20T18:34:21.720Z,14.20
2022-09-20T18:36:59.856Z,14.20
2022-09-20T18:39:29.388Z,14.20
2022-09-20T18:41:56.402Z,14.20
2022-09-20T18:44:23.698Z,14.20
2022-09-20T18:46:54.793Z,14.20
2022-09-20T18:49:21.810Z,14.10
2022-09-20T18:51:49.494Z,14.00
2022-09-20T18:54:17.071Z,14.00
2022-09-20T18:56:45.633Z,13.90
2022-09-20T18:59:20.029Z,13.90
2022-09-20T19:02:11.181Z,13.80
2022-09-20T19:04:57.798Z,13.80
2022-09-20T19:07:33.583Z,13.80
2022-09-20T19:10:06.522Z,13.70
2022-09-20T19:12:51.721Z,13.60
2022-09-20T19:15:44.036Z,13.60
2022-09-20T19:18:29.033Z,13.70
2022-09-20T19:21:21.650Z,13.60
2022-09-20T19:24:18.592Z,13.50
2022-09-20T19:26:45.640Z,13.60
2022-09-20T19:29:25.240Z,13.50
2022-09-20T19:31:55.920Z,13.40
2022-09-20T19:34:28.273Z,13.40
2022-09-20T19:37:19.154Z,13.40
2022-09-20T19:39:57.657Z,13.40
2022-09-20T19:42:45.873Z,13.30
2022-09-20T19:45:47.561Z,13.30
2022-09-20T19:48:21.929Z,13.30
2022-09-20T19:50:52.152Z,13.20
2022-09-20T19:53:22.397Z,13.20
2022-09-20T19:56:12.558Z,13.20
2022-09-20T19:58:45.014Z,13.10
2022-09-20T20:01:12.395Z,13.00
2022-09-20T20:03:39.546Z,13.00
2022-09-20T20:06:20.979Z,12.80
2022-09-20T20:09:06.117Z,13.10
2022-09-20T20:11:51.090Z,13.40
2022-09-20T20:14:17.829Z,13.80
2022-09-20T20:16:56.818Z,14.20
2022-09-20T20:19:32.445Z,14.50
2022-09-20T20:22:20.743Z,14.80
2022-09-20T20:24:52.278Z,15.10
2022-09-20T20:27:22.453Z,15.40
2022-09-20T20:29:49.519Z,15.70
2022-09-20T20:32:17.398Z,15.90
2022-09-20T20:34:44.352Z,16.00
2022-09-20T20:37:11.116Z,16.20
2022-09-20T20:39:37.866Z,16.30
2022-09-20T20:42:06.317Z,16.40
2022-09-20T20:44:37.764Z,16.50
2022-09-20T20:47:06.547Z,16.60
2022-09-20T20:49:36.502Z,16.60
2022-09-20T20:52:05.141Z,16.60
2022-09-20T20:54:32.643Z,16.70
2022-09-20T20:56:59.790Z,16.70
2022-09-20T20:59:27.040Z,16.80
2022-09-20T21:01:53.952Z,16.70
2022-09-20T21:04:21.723Z,16.80
2022-09-20T21:06:50.415Z,16.80
2022-09-20T21:09:17.417Z,16.90
2022-09-20T21:11:44.789Z,16.80
2022-09-20T21:14:12.947Z,16.90
2022-09-20T21:16:43.286Z,16.90
2022-09-20T21:19:14.769Z,16.90
2022-09-20T21:21:43.783Z,16.90
2022-09-20T21:24:13.178Z,17.00
2022-09-20T21:26:40.658Z,16.90
2022-09-20T21:29:12.470Z,17.00
2022-09-20T21:31:41.279Z,17.00
2022-09-20T21:34:10.080Z,17.00
2022-09-20T21:36:39.329Z,17.00
2022-09-20T21:39:06.319Z,17.10
2022-09-20T21:41:35.775Z,17.10
2022-09-20T21:44:04.455Z,17.10
2022-09-20T21:46:40.172Z,17.10
2022-09-20T21:49:09.088Z,17.00
2022-09-20T21:51:36.468Z,17.10
2022-09-20T21:54:04.224Z,17.10
2022-09-20T21:56:35.889Z,17.20
2022-09-20T21:59:04.320Z,17.20
2022-09-20T22:01:34.853Z,17.20
2022-09-20T22:04:05.934Z,17.10
2022-09-20T22:06:38.777Z,17.10
2022-09-20T22:09:08.591Z,17.20
2022-09-20T22:11:39.083Z,17.20
2022-09-20T22:14:07.480Z,17.20
2022-09-20T22:16:38.011Z,17.20
2022-09-20T22:19:05.842Z,17.20
2022-09-20T22:21:38.691Z,17.30
2022-09-20T22:24:08.555Z,17.20
2022-09-20T22:26:38.653Z,17.20
2022-09-20T22:29:06.513Z,17.20
2022-09-20T22:31:35.666Z,17.20
2022-09-20T22:34:05.029Z,17.20
2022-09-20T22:36:33.360Z,17.30
2022-09-20T22:39:00.821Z,17.20
2022-09-20T22:41:28.106Z,17.30
2022-09-20T22:43:55.435Z,17.20
2022-09-20T22:46:27.806Z,17.30
2022-09-20T22:48:54.848Z,17.30
2022-09-20T22:51:27.349Z,17.30
2022-09-20T22:53:54.494Z,17.30
2022-09-20T22:56:24.978Z,17.30
2022-09-20T22:58:52.848Z,17.20
2022-09-20T23:01:22.993Z,17.30
2022-09-20T23:04:08.087Z,17.30
2022-09-20T23:06:38.546Z,17.30
2022-09-20T23:09:11.098Z,17.30
2022-09-20T23:11:39.961Z,17.40
2022-09-20T23:14:07.175Z,17.40
2022-09-20T23:16:36.505Z,17.30
2022-09-20T23:19:05.131Z,17.30
2022-09-20T23:21:32.729Z,17.40
2022-09-20T23:24:01.534Z,17.40
2022-09-20T23:26:31.191Z,17.30
2022-09-20T23:29:07.044Z,17.40
2022-09-20T23:31:36.465Z,17.40
2022-09-20T23:34:05.275Z,17.40
2022-09-20T23:36:35.119Z,17.40
2022-09-20T23:39:02.093Z,17.40
2022-09-20T23:41:29.177Z,17.40
2022-09-20T23:43:56.416Z,17.30
2022-09-20T23:46:25.587Z,17.40
2022-09-20T23:48:52.940Z,17.40
2022-09-20T23:51:23.219Z,17.40
2022-09-20T23:53:51.494Z,17.40
2022-09-20T23:56:19.612Z,17.40
2022-09-20T23:58:46.672Z,17.40
